Terminal Aerodrome Forecast
Issued by NWS Charleston, WV

Current Version | Previous Version | Graphics & Text | Print | Product List | Glossary On
Versions: 1 2 3 4 5 6 7 8 9 10 11 12 13 14 15 16 17 18 19 20 21 22 23 24 25 26 27 28 29 30
000
FTUS41 KRLX 262200 AAC
TAFBKW
TAF AMD
KBKW 262255Z 2623/2718 33010KT 4SM -RA BR OVC005
     FM270800 33007KT 5SM -RASN BR OVC008
     FM271000 33006KT P6SM BKN008
     FM271600 32009KT P6SM BKN035=

USA.gov is the U.S. government's official web portal to all federal, state and local government web resources and services.